sensor_id;sensor_type;location;lat;lon;timestamp;temperature;humidity
15656;DHT22;7928;43.614;1.456;2023-08-07T00:00:35;18.70;99.40
15656;DHT22;7928;43.614;1.456;2023-08-07T00:03:02;18.60;99.60
15656;DHT22;7928;43.614;1.456;2023-08-07T00:05:30;18.60;99.70
15656;DHT22;7928;43.614;1.456;2023-08-07T00:07:57;18.50;99.90
15656;DHT22;7928;43.614;1.456;2023-08-07T00:10:24;18.50;99.90
15656;DHT22;7928;43.614;1.456;2023-08-07T00:12:51;18.50;99.90
15656;DHT22;7928;43.614;1.456;2023-08-07T00:15:18;18.50;99.90
15656;DHT22;7928;43.614;1.456;2023-08-07T00:17:45;18.50;99.90
15656;DHT22;7928;43.614;1.456;2023-08-07T00:20:12;18.40;99.90
15656;DHT22;7928;43.614;1.456;2023-08-07T00:22:41;18.40;99.90
15656;DHT22;7928;43.614;1.456;2023-08-07T00:25:08;18.50;99.90
15656;DHT22;7928;43.614;1.456;2023-08-07T00:27:35;18.40;99.90
15656;DHT22;7928;43.614;1.456;2023-08-07T00:30:02;18.30;99.90
15656;DHT22;7928;43.614;1.456;2023-08-07T00:32:29;18.30;99.90
15656;DHT22;7928;43.614;1.456;2023-08-07T00:34:56;18.30;99.90
15656;DHT22;7928;43.614;1.456;2023-08-07T00:37:24;18.40;99.90
15656;DHT22;7928;43.614;1.456;2023-08-07T00:39:53;18.30;99.90
15656;DHT22;7928;43.614;1.456;2023-08-07T00:42:20;18.20;99.90
15656;DHT22;7928;43.614;1.456;2023-08-07T00:44:47;18.20;99.90
15656;DHT22;7928;43.614;1.456;2023-08-07T00:47:14;18.20;99.90
15656;DHT22;7928;43.614;1.456;2023-08-07T00:49:41;18.10;99.90
15656;DHT22;7928;43.614;1.456;2023-08-07T00:52:08;18.10;99.90
15656;DHT22;7928;43.614;1.456;2023-08-07T00:54:35;18.00;99.90
15656;DHT22;7928;43.614;1.456;2023-08-07T00:57:10;18.00;99.90
15656;DHT22;7928;43.614;1.456;2023-08-07T00:59:38;18.00;99.90
15656;DHT22;7928;43.614;1.456;2023-08-07T01:02:06;17.90;99.90
15656;DHT22;7928;43.614;1.456;2023-08-07T01:04:33;17.90;99.90
15656;DHT22;7928;43.614;1.456;2023-08-07T01:07:00;17.90;99.90
15656;DHT22;7928;43.614;1.456;2023-08-07T01:09:27;17.80;99.90
15656;DHT22;7928;43.614;1.456;2023-08-07T01:11:58;17.80;99.90
15656;DHT22;7928;43.614;1.456;2023-08-07T01:14:37;17.70;99.90
15656;DHT22;7928;43.614;1.456;2023-08-07T01:17:07;17.60;99.90
15656;DHT22;7928;43.614;1.456;2023-08-07T01:19:36;17.60;99.90
15656;DHT22;7928;43.614;1.456;2023-08-07T01:22:08;17.50;99.90
15656;DHT22;7928;43.614;1.456;2023-08-07T01:24:36;17.50;99.90
15656;DHT22;7928;43.614;1.456;2023-08-07T01:27:19;17.50;99.90
15656;DHT22;7928;43.614;1.456;2023-08-07T01:29:54;17.50;99.90
15656;DHT22;7928;43.614;1.456;2023-08-07T01:32:26;17.40;99.90
15656;DHT22;7928;43.614;1.456;2023-08-07T01:34:54;17.40;99.90
15656;DHT22;7928;43.614;1.456;2023-08-07T01:37:26;17.50;99.90
15656;DHT22;7928;43.614;1.456;2023-08-07T01:39:55;17.40;99.90
15656;DHT22;7928;43.614;1.456;2023-08-07T01:42:23;17.40;99.90
15656;DHT22;7928;43.614;1.456;2023-08-07T01:44:50;17.40;99.90
15656;DHT22;7928;43.614;1.456;2023-08-07T01:47:18;17.40;99.90
15656;DHT22;7928;43.614;1.456;2023-08-07T01:49:45;17.40;99.90
15656;DHT22;7928;43.614;1.456;2023-08-07T01:52:12;17.40;99.90
15656;DHT22;7928;43.614;1.456;2023-08-07T01:54:40;17.40;99.90
15656;DHT22;7928;43.614;1.456;2023-08-07T01:57:07;17.50;99.90
15656;DHT22;7928;43.614;1.456;2023-08-07T01:59:34;17.50;99.90
15656;DHT22;7928;43.614;1.456;2023-08-07T02:02:01;17.40;99.90
15656;DHT22;7928;43.614;1.456;2023-08-07T02:04:28;17.50;99.90
15656;DHT22;7928;43.614;1.456;2023-08-07T02:06:55;17.50;99.90
15656;DHT22;7928;43.614;1.456;2023-08-07T02:09:22;17.50;99.90
15656;DHT22;7928;43.614;1.456;2023-08-07T02:11:51;17.50;99.90
15656;DHT22;7928;43.614;1.456;2023-08-07T02:14:17;17.50;99.90
15656;DHT22;7928;43.614;1.456;2023-08-07T02:16:44;17.50;99.90
15656;DHT22;7928;43.614;1.456;2023-08-07T02:19:11;17.40;99.90
15656;DHT22;7928;43.614;1.456;2023-08-07T02:21:38;17.40;99.90
15656;DHT22;7928;43.614;1.456;2023-08-07T02:24:05;17.40;99.90
15656;DHT22;7928;43.614;1.456;2023-08-07T02:26:32;17.40;99.90
15656;DHT22;7928;43.614;1.456;2023-08-07T02:29:00;17.40;99.90
15656;DHT22;7928;43.614;1.456;2023-08-07T02:31:29;17.40;99.90
15656;DHT22;7928;43.614;1.456;2023-08-07T02:33:56;17.40;99.90
15656;DHT22;7928;43.614;1.456;2023-08-07T02:36:23;17.30;99.90
15656;DHT22;7928;43.614;1.456;2023-08-07T02:38:50;17.30;99.90
15656;DHT22;7928;43.614;1.456;2023-08-07T02:41:17;17.30;99.90
15656;DHT22;7928;43.614;1.456;2023-08-07T02:43:44;17.20;99.90
15656;DHT22;7928;43.614;1.456;2023-08-07T02:46:12;17.10;99.90
15656;DHT22;7928;43.614;1.456;2023-08-07T02:48:39;17.00;99.90
15656;DHT22;7928;43.614;1.456;2023-08-07T02:51:06;16.80;99.90
15656;DHT22;7928;43.614;1.456;2023-08-07T02:53:33;16.80;99.90
15656;DHT22;7928;43.614;1.456;2023-08-07T02:56:00;16.80;99.90
15656;DHT22;7928;43.614;1.456;2023-08-07T02:58:27;16.70;99.90
15656;DHT22;7928;43.614;1.456;2023-08-07T03:00:54;16.70;99.90
15656;DHT22;7928;43.614;1.456;2023-08-07T03:03:23;16.60;99.90
15656;DHT22;7928;43.614;1.456;2023-08-07T03:05:50;16.50;99.90
15656;DHT22;7928;43.614;1.456;2023-08-07T03:08:17;16.50;99.90
15656;DHT22;7928;43.614;1.456;2023-08-07T03:10:50;16.50;99.90
15656;DHT22;7928;43.614;1.456;2023-08-07T03:13:18;16.50;99.90
15656;DHT22;7928;43.614;1.456;2023-08-07T03:15:45;16.50;99.90
15656;DHT22;7928;43.614;1.456;2023-08-07T03:18:14;16.50;99.90
15656;DHT22;7928;43.614;1.456;2023-08-07T03:20:43;16.60;99.90
15656;DHT22;7928;43.614;1.456;2023-08-07T03:23:10;16.60;99.90
15656;DHT22;7928;43.614;1.456;2023-08-07T03:25:37;16.50;99.90
15656;DHT22;7928;43.614;1.456;2023-08-07T03:28:04;16.50;99.90
15656;DHT22;7928;43.614;1.456;2023-08-07T03:30:31;16.50;99.90
15656;DHT22;7928;43.614;1.456;2023-08-07T03:32:58;16.50;99.90
15656;DHT22;7928;43.614;1.456;2023-08-07T03:35:25;16.50;99.90
15656;DHT22;7928;43.614;1.456;2023-08-07T03:37:53;16.50;99.90
15656;DHT22;7928;43.614;1.456;2023-08-07T03:40:20;16.50;99.90
15656;DHT22;7928;43.614;1.456;2023-08-07T03:42:47;16.40;99.90
15656;DHT22;7928;43.614;1.456;2023-08-07T03:45:14;16.40;99.90
15656;DHT22;7928;43.614;1.456;2023-08-07T03:47:41;16.50;99.90
15656;DHT22;7928;43.614;1.456;2023-08-07T03:50:08;16.50;99.90
15656;DHT22;7928;43.614;1.456;2023-08-07T03:52:35;16.50;99.90
15656;DHT22;7928;43.614;1.456;2023-08-07T03:55:05;16.30;99.90
15656;DHT22;7928;43.614;1.456;2023-08-07T03:57:32;16.30;99.90
15656;DHT22;7928;43.614;1.456;2023-08-07T03:59:58;16.30;99.90
15656;DHT22;7928;43.614;1.456;2023-08-07T04:02:25;16.30;99.90
15656;DHT22;7928;43.614;1.456;2023-08-07T04:04:54;16.10;99.90
15656;DHT22;7928;43.614;1.456;2023-08-07T04:07:21;16.00;99.90
15656;DHT22;7928;43.614;1.456;2023-08-07T04:09:48;15.90;99.90
15656;DHT22;7928;43.614;1.456;2023-08-07T04:12:16;15.80;99.90
15656;DHT22;7928;43.614;1.456;2023-08-07T04:14:43;15.80;99.90
15656;DHT22;7928;43.614;1.456;2023-08-07T04:17:10;15.80;99.90
15656;DHT22;7928;43.614;1.456;2023-08-07T04:19:37;15.90;99.90
15656;DHT22;7928;43.614;1.456;2023-08-07T04:22:04;15.80;99.90
15656;DHT22;7928;43.614;1.456;2023-08-07T04:24:31;15.90;99.90
15656;DHT22;7928;43.614;1.456;2023-08-07T04:26:58;15.90;99.90
15656;DHT22;7928;43.614;1.456;2023-08-07T04:29:26;15.90;99.90
15656;DHT22;7928;43.614;1.456;2023-08-07T04:31:53;15.80;99.90
15656;DHT22;7928;43.614;1.456;2023-08-07T04:34:20;15.80;99.90
15656;DHT22;7928;43.614;1.456;2023-08-07T04:36:47;15.80;99.90
15656;DHT22;7928;43.614;1.456;2023-08-07T04:39:15;15.70;99.90
15656;DHT22;7928;43.614;1.456;2023-08-07T04:41:44;15.70;99.90
15656;DHT22;7928;43.614;1.456;2023-08-07T04:44:11;15.70;99.90
15656;DHT22;7928;43.614;1.456;2023-08-07T04:46:39;15.70;99.90
15656;DHT22;7928;43.614;1.456;2023-08-07T04:49:07;15.70;99.90
15656;DHT22;7928;43.614;1.456;2023-08-07T04:51:34;15.70;99.90
15656;DHT22;7928;43.614;1.456;2023-08-07T04:54:00;15.70;99.90
15656;DHT22;7928;43.614;1.456;2023-08-07T04:56:27;15.70;99.90
15656;DHT22;7928;43.614;1.456;2023-08-07T04:58:56;15.70;99.90
15656;DHT22;7928;43.614;1.456;2023-08-07T05:01:23;15.60;99.90
15656;DHT22;7928;43.614;1.456;2023-08-07T05:03:51;15.70;99.90
15656;DHT22;7928;43.614;1.456;2023-08-07T05:06:18;15.80;99.90
15656;DHT22;7928;43.614;1.456;2023-08-07T05:08:45;15.80;99.90
15656;DHT22;7928;43.614;1.456;2023-08-07T05:11:12;15.90;99.90
15656;DHT22;7928;43.614;1.456;2023-08-07T05:13:40;16.00;99.90
15656;DHT22;7928;43.614;1.456;2023-08-07T05:16:07;16.00;99.90
15656;DHT22;7928;43.614;1.456;2023-08-07T05:18:34;16.00;99.90
15656;DHT22;7928;43.614;1.456;2023-08-07T05:21:03;15.90;99.90
15656;DHT22;7928;43.614;1.456;2023-08-07T05:23:30;15.90;99.90
15656;DHT22;7928;43.614;1.456;2023-08-07T05:25:57;15.80;99.90
15656;DHT22;7928;43.614;1.456;2023-08-07T05:28:24;15.80;99.90
15656;DHT22;7928;43.614;1.456;2023-08-07T05:30:51;15.80;99.90
15656;DHT22;7928;43.614;1.456;2023-08-07T05:33:18;15.80;99.90
15656;DHT22;7928;43.614;1.456;2023-08-07T05:35:45;15.80;99.90
15656;DHT22;7928;43.614;1.456;2023-08-07T05:38:13;15.80;99.90
15656;DHT22;7928;43.614;1.456;2023-08-07T05:40:40;15.80;99.90
15656;DHT22;7928;43.614;1.456;2023-08-07T05:43:07;15.80;99.90
15656;DHT22;7928;43.614;1.456;2023-08-07T05:45:34;15.80;99.90
15656;DHT22;7928;43.614;1.456;2023-08-07T05:48:01;15.80;99.90
15656;DHT22;7928;43.614;1.456;2023-08-07T05:50:28;15.80;99.90
15656;DHT22;7928;43.614;1.456;2023-08-07T05:52:55;15.90;99.90
15656;DHT22;7928;43.614;1.456;2023-08-07T05:55:23;15.90;99.90
15656;DHT22;7928;43.614;1.456;2023-08-07T05:57:50;15.90;99.90
15656;DHT22;7928;43.614;1.456;2023-08-07T06:00:18;15.90;99.90
15656;DHT22;7928;43.614;1.456;2023-08-07T06:02:45;15.90;99.90
15656;DHT22;7928;43.614;1.456;2023-08-07T06:05:12;15.90;99.90
15656;DHT22;7928;43.614;1.456;2023-08-07T06:07:40;15.90;99.90
15656;DHT22;7928;43.614;1.456;2023-08-07T06:10:08;16.00;99.90
15656;DHT22;7928;43.614;1.456;2023-08-07T06:12:36;16.00;99.90
15656;DHT22;7928;43.614;1.456;2023-08-07T06:15:04;16.10;99.90
15656;DHT22;7928;43.614;1.456;2023-08-07T06:17:31;16.20;99.90
15656;DHT22;7928;43.614;1.456;2023-08-07T06:19:58;16.20;99.90
15656;DHT22;7928;43.614;1.456;2023-08-07T06:22:25;16.20;99.90
15656;DHT22;7928;43.614;1.456;2023-08-07T06:24:52;16.20;99.90
15656;DHT22;7928;43.614;1.456;2023-08-07T06:27:21;16.20;99.90
15656;DHT22;7928;43.614;1.456;2023-08-07T06:29:49;16.30;99.90
15656;DHT22;7928;43.614;1.456;2023-08-07T06:32:16;16.30;99.90
15656;DHT22;7928;43.614;1.456;2023-08-07T06:34:43;16.30;99.90
15656;DHT22;7928;43.614;1.456;2023-08-07T06:37:12;16.40;99.90
15656;DHT22;7928;43.614;1.456;2023-08-07T06:39:39;16.50;99.90
15656;DHT22;7928;43.614;1.456;2023-08-07T06:42:06;16.50;99.90
15656;DHT22;7928;43.614;1.456;2023-08-07T06:44:33;16.60;99.90
15656;DHT22;7928;43.614;1.456;2023-08-07T06:47:02;16.70;99.90
15656;DHT22;7928;43.614;1.456;2023-08-07T06:49:29;16.80;99.90
15656;DHT22;7928;43.614;1.456;2023-08-07T06:51:57;16.90;99.90
15656;DHT22;7928;43.614;1.456;2023-08-07T06:54:24;16.80;99.90
15656;DHT22;7928;43.614;1.456;2023-08-07T06:56:51;16.90;99.90
15656;DHT22;7928;43.614;1.456;2023-08-07T06:59:18;16.80;99.90
15656;DHT22;7928;43.614;1.456;2023-08-07T07:01:45;16.80;99.90
15656;DHT22;7928;43.614;1.456;2023-08-07T07:04:13;16.90;99.90
15656;DHT22;7928;43.614;1.456;2023-08-07T07:06:40;17.00;99.90
15656;DHT22;7928;43.614;1.456;2023-08-07T07:09:07;17.10;99.90
15656;DHT22;7928;43.614;1.456;2023-08-07T07:11:34;17.20;99.90
15656;DHT22;7928;43.614;1.456;2023-08-07T07:14:01;17.10;99.90
15656;DHT22;7928;43.614;1.456;2023-08-07T07:16:28;17.20;99.90
15656;DHT22;7928;43.614;1.456;2023-08-07T07:18:55;17.20;99.90
15656;DHT22;7928;43.614;1.456;2023-08-07T07:21:25;17.20;99.90
15656;DHT22;7928;43.614;1.456;2023-08-07T07:23:52;17.20;99.90
15656;DHT22;7928;43.614;1.456;2023-08-07T07:26:19;17.30;99.90
15656;DHT22;7928;43.614;1.456;2023-08-07T07:28:46;17.50;99.90
15656;DHT22;7928;43.614;1.456;2023-08-07T07:31:13;17.60;99.90
15656;DHT22;7928;43.614;1.456;2023-08-07T07:33:40;17.50;99.90
15656;DHT22;7928;43.614;1.456;2023-08-07T07:36:07;17.70;99.90
15656;DHT22;7928;43.614;1.456;2023-08-07T07:38:35;17.70;99.90
15656;DHT22;7928;43.614;1.456;2023-08-07T07:41:02;17.80;99.90
15656;DHT22;7928;43.614;1.456;2023-08-07T07:43:29;17.90;99.90
15656;DHT22;7928;43.614;1.456;2023-08-07T07:45:57;17.80;99.90
15656;DHT22;7928;43.614;1.456;2023-08-07T07:48:24;18.00;99.90
15656;DHT22;7928;43.614;1.456;2023-08-07T07:50:51;18.20;99.90
15656;DHT22;7928;43.614;1.456;2023-08-07T07:53:19;18.20;99.90
15656;DHT22;7928;43.614;1.456;2023-08-07T07:55:48;18.20;99.90
15656;DHT22;7928;43.614;1.456;2023-08-07T07:58:15;18.20;99.90
15656;DHT22;7928;43.614;1.456;2023-08-07T08:00:42;18.20;99.90
15656;DHT22;7928;43.614;1.456;2023-08-07T08:03:09;18.30;99.90
15656;DHT22;7928;43.614;1.456;2023-08-07T08:05:37;18.30;99.90
15656;DHT22;7928;43.614;1.456;2023-08-07T08:08:05;18.30;99.90
15656;DHT22;7928;43.614;1.456;2023-08-07T08:10:32;18.40;99.90
15656;DHT22;7928;43.614;1.456;2023-08-07T08:13:01;18.50;99.90
15656;DHT22;7928;43.614;1.456;2023-08-07T08:15:29;18.70;99.90
15656;DHT22;7928;43.614;1.456;2023-08-07T08:17:56;18.70;99.90
15656;DHT22;7928;43.614;1.456;2023-08-07T08:20:23;18.80;99.90
15656;DHT22;7928;43.614;1.456;2023-08-07T08:22:50;18.90;99.90
15656;DHT22;7928;43.614;1.456;2023-08-07T08:25:17;19.00;99.90
15656;DHT22;7928;43.614;1.456;2023-08-07T08:27:44;19.10;99.90
15656;DHT22;7928;43.614;1.456;2023-08-07T08:30:13;19.20;99.90
15656;DHT22;7928;43.614;1.456;2023-08-07T08:32:42;19.40;99.90
15656;DHT22;7928;43.614;1.456;2023-08-07T08:35:09;19.50;99.90
15656;DHT22;7928;43.614;1.456;2023-08-07T08:37:37;19.60;99.90
15656;DHT22;7928;43.614;1.456;2023-08-07T08:40:05;19.70;99.90
15656;DHT22;7928;43.614;1.456;2023-08-07T08:42:34;19.80;99.90
15656;DHT22;7928;43.614;1.456;2023-08-07T08:45:02;19.90;99.90
15656;DHT22;7928;43.614;1.456;2023-08-07T08:47:32;20.10;99.90
15656;DHT22;7928;43.614;1.456;2023-08-07T08:50:02;20.00;99.90
15656;DHT22;7928;43.614;1.456;2023-08-07T08:52:31;19.90;99.90
15656;DHT22;7928;43.614;1.456;2023-08-07T08:54:58;19.90;99.90
15656;DHT22;7928;43.614;1.456;2023-08-07T08:57:25;19.80;99.90
15656;DHT22;7928;43.614;1.456;2023-08-07T08:59:53;19.90;99.90
15656;DHT22;7928;43.614;1.456;2023-08-07T09:02:20;20.10;99.90
15656;DHT22;7928;43.614;1.456;2023-08-07T09:04:48;20.30;99.90
15656;DHT22;7928;43.614;1.456;2023-08-07T09:07:16;20.20;99.90
15656;DHT22;7928;43.614;1.456;2023-08-07T09:09:46;20.20;99.90
15656;DHT22;7928;43.614;1.456;2023-08-07T09:12:16;20.50;99.90
15656;DHT22;7928;43.614;1.456;2023-08-07T09:14:49;20.70;99.90
15656;DHT22;7928;43.614;1.456;2023-08-07T09:17:21;21.00;99.90
15656;DHT22;7928;43.614;1.456;2023-08-07T09:19:51;21.10;99.90
15656;DHT22;7928;43.614;1.456;2023-08-07T09:22:19;21.20;99.90
15656;DHT22;7928;43.614;1.456;2023-08-07T09:24:46;21.20;99.90
15656;DHT22;7928;43.614;1.456;2023-08-07T09:27:13;21.40;99.90
15656;DHT22;7928;43.614;1.456;2023-08-07T09:32:08;21.80;99.90
15656;DHT22;7928;43.614;1.456;2023-08-07T09:34:35;21.80;99.90
15656;DHT22;7928;43.614;1.456;2023-08-07T09:37:04;21.80;99.90
15656;DHT22;7928;43.614;1.456;2023-08-07T09:39:31;21.80;99.90
15656;DHT22;7928;43.614;1.456;2023-08-07T09:41:58;21.90;99.90
15656;DHT22;7928;43.614;1.456;2023-08-07T09:44:25;21.90;99.90
15656;DHT22;7928;43.614;1.456;2023-08-07T09:46:52;21.90;99.90
15656;DHT22;7928;43.614;1.456;2023-08-07T09:49:19;21.90;99.90
15656;DHT22;7928;43.614;1.456;2023-08-07T09:51:47;22.10;99.80
15656;DHT22;7928;43.614;1.456;2023-08-07T09:54:17;22.10;99.00
15656;DHT22;7928;43.614;1.456;2023-08-07T09:56:47;22.30;99.30
15656;DHT22;7928;43.614;1.456;2023-08-07T09:59:14;22.30;99.20
15656;DHT22;7928;43.614;1.456;2023-08-07T10:01:41;22.50;98.90
15656;DHT22;7928;43.614;1.456;2023-08-07T10:04:10;22.60;98.80
15656;DHT22;7928;43.614;1.456;2023-08-07T10:06:41;22.70;98.70
15656;DHT22;7928;43.614;1.456;2023-08-07T10:09:08;22.70;97.90
15656;DHT22;7928;43.614;1.456;2023-08-07T10:11:38;22.80;97.90
15656;DHT22;7928;43.614;1.456;2023-08-07T10:14:05;22.90;98.00
15656;DHT22;7928;43.614;1.456;2023-08-07T10:16:33;23.00;97.80
15656;DHT22;7928;43.614;1.456;2023-08-07T10:19:04;23.00;97.50
15656;DHT22;7928;43.614;1.456;2023-08-07T10:21:33;23.00;96.80
15656;DHT22;7928;43.614;1.456;2023-08-07T10:24:04;23.10;97.00
15656;DHT22;7928;43.614;1.456;2023-08-07T10:26:32;23.30;97.30
15656;DHT22;7928;43.614;1.456;2023-08-07T10:29:04;23.40;96.80
15656;DHT22;7928;43.614;1.456;2023-08-07T10:31:33;23.40;96.00
15656;DHT22;7928;43.614;1.456;2023-08-07T10:34:02;23.50;96.30
15656;DHT22;7928;43.614;1.456;2023-08-07T10:36:32;23.60;96.60
15656;DHT22;7928;43.614;1.456;2023-08-07T10:39:06;23.70;96.00
15656;DHT22;7928;43.614;1.456;2023-08-07T10:41:39;23.70;95.60
15656;DHT22;7928;43.614;1.456;2023-08-07T10:44:17;23.80;94.80
15656;DHT22;7928;43.614;1.456;2023-08-07T10:46:48;23.90;95.10
15656;DHT22;7928;43.614;1.456;2023-08-07T10:49:32;24.10;94.50
15656;DHT22;7928;43.614;1.456;2023-08-07T10:52:02;23.80;94.00
15656;DHT22;7928;43.614;1.456;2023-08-07T10:54:29;23.60;94.10
15656;DHT22;7928;43.614;1.456;2023-08-07T10:56:56;24.00;94.30
15656;DHT22;7928;43.614;1.456;2023-08-07T10:59:29;24.50;93.30
15656;DHT22;7928;43.614;1.456;2023-08-07T11:01:58;25.10;93.00
15656;DHT22;7928;43.614;1.456;2023-08-07T11:04:27;25.70;92.00
15656;DHT22;7928;43.614;1.456;2023-08-07T11:06:54;26.40;92.10
15656;DHT22;7928;43.614;1.456;2023-08-07T11:09:21;27.10;91.60
15656;DHT22;7928;43.614;1.456;2023-08-07T11:11:48;27.60;90.10
15656;DHT22;7928;43.614;1.456;2023-08-07T11:14:16;28.10;88.40
15656;DHT22;7928;43.614;1.456;2023-08-07T11:16:46;28.50;87.10
15656;DHT22;7928;43.614;1.456;2023-08-07T11:19:14;28.70;85.10
15656;DHT22;7928;43.614;1.456;2023-08-07T11:21:42;29.00;81.60
15656;DHT22;7928;43.614;1.456;2023-08-07T11:24:14;29.60;82.20
15656;DHT22;7928;43.614;1.456;2023-08-07T11:26:45;30.10;80.40
15656;DHT22;7928;43.614;1.456;2023-08-07T11:29:16;30.60;78.10
15656;DHT22;7928;43.614;1.456;2023-08-07T11:31:44;30.10;75.50
15656;DHT22;7928;43.614;1.456;2023-08-07T11:34:11;29.80;77.80
15656;DHT22;7928;43.614;1.456;2023-08-07T11:36:41;30.50;76.80
15656;DHT22;7928;43.614;1.456;2023-08-07T11:39:08;31.10;76.30
15656;DHT22;7928;43.614;1.456;2023-08-07T11:41:35;31.60;73.40
15656;DHT22;7928;43.614;1.456;2023-08-07T11:44:03;32.00;72.80
15656;DHT22;7928;43.614;1.456;2023-08-07T11:46:30;32.10;70.20
15656;DHT22;7928;43.614;1.456;2023-08-07T11:48:58;32.30;71.40
15656;DHT22;7928;43.614;1.456;2023-08-07T11:51:27;31.80;69.10
15656;DHT22;7928;43.614;1.456;2023-08-07T11:53:55;31.80;69.50
15656;DHT22;7928;43.614;1.456;2023-08-07T11:56:25;31.30;67.70
15656;DHT22;7928;43.614;1.456;2023-08-07T11:58:52;30.90;68.50
15656;DHT22;7928;43.614;1.456;2023-08-07T12:01:20;31.20;69.00
15656;DHT22;7928;43.614;1.456;2023-08-07T12:03:52;32.10;68.70
15656;DHT22;7928;43.614;1.456;2023-08-07T12:06:22;32.00;64.80
15656;DHT22;7928;43.614;1.456;2023-08-07T12:08:53;31.90;64.80
15656;DHT22;7928;43.614;1.456;2023-08-07T12:11:20;31.40;65.30
15656;DHT22;7928;43.614;1.456;2023-08-07T12:13:48;30.80;67.10
15656;DHT22;7928;43.614;1.456;2023-08-07T12:16:16;30.80;66.90
15656;DHT22;7928;43.614;1.456;2023-08-07T12:18:44;31.20;67.40
15656;DHT22;7928;43.614;1.456;2023-08-07T12:21:14;31.50;67.00
15656;DHT22;7928;43.614;1.456;2023-08-07T12:23:44;31.20;66.10
15656;DHT22;7928;43.614;1.456;2023-08-07T12:26:13;31.00;67.30
15656;DHT22;7928;43.614;1.456;2023-08-07T12:28:40;31.80;67.70
15656;DHT22;7928;43.614;1.456;2023-08-07T12:31:07;32.00;65.90
15656;DHT22;7928;43.614;1.456;2023-08-07T12:33:34;32.70;65.10
15656;DHT22;7928;43.614;1.456;2023-08-07T12:36:02;33.10;61.80
15656;DHT22;7928;43.614;1.456;2023-08-07T12:38:29;33.60;62.20
15656;DHT22;7928;43.614;1.456;2023-08-07T12:40:57;33.70;61.20
15656;DHT22;7928;43.614;1.456;2023-08-07T12:43:25;34.00;59.40
15656;DHT22;7928;43.614;1.456;2023-08-07T12:45:52;33.60;58.10
15656;DHT22;7928;43.614;1.456;2023-08-07T12:48:19;33.50;57.30
15656;DHT22;7928;43.614;1.456;2023-08-07T12:50:46;33.40;58.20
15656;DHT22;7928;43.614;1.456;2023-08-07T12:53:13;32.80;57.60
15656;DHT22;7928;43.614;1.456;2023-08-07T12:55:40;32.00;56.90
15656;DHT22;7928;43.614;1.456;2023-08-07T12:58:09;32.70;58.50
15656;DHT22;7928;43.614;1.456;2023-08-07T13:00:36;33.20;57.40
15656;DHT22;7928;43.614;1.456;2023-08-07T13:03:03;33.50;57.50
15656;DHT22;7928;43.614;1.456;2023-08-07T13:05:30;33.90;57.90
15656;DHT22;7928;43.614;1.456;2023-08-07T13:07:57;34.30;58.00
15656;DHT22;7928;43.614;1.456;2023-08-07T13:10:25;34.10;57.20
15656;DHT22;7928;43.614;1.456;2023-08-07T13:15:22;34.00;56.30
15656;DHT22;7928;43.614;1.456;2023-08-07T13:17:50;34.10;57.90
15656;DHT22;7928;43.614;1.456;2023-08-07T13:20:17;34.00;55.60
15656;DHT22;7928;43.614;1.456;2023-08-07T13:22:45;34.00;56.00
15656;DHT22;7928;43.614;1.456;2023-08-07T13:25:13;34.60;56.50
15656;DHT22;7928;43.614;1.456;2023-08-07T13:27:40;34.30;56.10
15656;DHT22;7928;43.614;1.456;2023-08-07T13:30:08;33.90;55.90
15656;DHT22;7928;43.614;1.456;2023-08-07T13:32:37;34.20;57.30
15656;DHT22;7928;43.614;1.456;2023-08-07T13:35:04;34.50;56.00
15656;DHT22;7928;43.614;1.456;2023-08-07T13:37:31;34.40;57.70
15656;DHT22;7928;43.614;1.456;2023-08-07T13:39:59;34.60;56.70
15656;DHT22;7928;43.614;1.456;2023-08-07T13:42:26;33.70;54.90
15656;DHT22;7928;43.614;1.456;2023-08-07T13:44:54;33.40;55.80
15656;DHT22;7928;43.614;1.456;2023-08-07T13:47:21;33.10;56.30
15656;DHT22;7928;43.614;1.456;2023-08-07T13:49:52;33.00;57.20
15656;DHT22;7928;43.614;1.456;2023-08-07T13:52:20;33.60;55.70
15656;DHT22;7928;43.614;1.456;2023-08-07T13:54:47;34.20;57.70
15656;DHT22;7928;43.614;1.456;2023-08-07T13:57:14;34.80;56.80
15656;DHT22;7928;43.614;1.456;2023-08-07T13:59:42;34.90;56.20
15656;DHT22;7928;43.614;1.456;2023-08-07T14:02:09;33.80;55.80
15656;DHT22;7928;43.614;1.456;2023-08-07T14:04:36;33.30;56.50
15656;DHT22;7928;43.614;1.456;2023-08-07T14:07:05;32.90;56.70
15656;DHT22;7928;43.614;1.456;2023-08-07T14:09:32;33.60;57.60
15656;DHT22;7928;43.614;1.456;2023-08-07T14:11:59;34.30;56.40
15656;DHT22;7928;43.614;1.456;2023-08-07T14:14:26;35.10;56.80
15656;DHT22;7928;43.614;1.456;2023-08-07T14:16:53;35.20;56.20
15656;DHT22;7928;43.614;1.456;2023-08-07T14:19:23;35.40;55.50
15656;DHT22;7928;43.614;1.456;2023-08-07T14:21:50;35.80;54.90
15656;DHT22;7928;43.614;1.456;2023-08-07T14:24:19;35.40;55.00
15656;DHT22;7928;43.614;1.456;2023-08-07T14:26:46;35.20;54.20
15656;DHT22;7928;43.614;1.456;2023-08-07T14:29:13;34.50;54.80
15656;DHT22;7928;43.614;1.456;2023-08-07T14:31:40;35.50;55.30
15656;DHT22;7928;43.614;1.456;2023-08-07T14:34:07;36.60;54.50
15656;DHT22;7928;43.614;1.456;2023-08-07T14:36:35;37.20;53.80
15656;DHT22;7928;43.614;1.456;2023-08-07T14:39:01;37.60;53.00
15656;DHT22;7928;43.614;1.456;2023-08-07T14:41:30;37.50;53.20
15656;DHT22;7928;43.614;1.456;2023-08-07T14:43:57;37.90;52.00
15656;DHT22;7928;43.614;1.456;2023-08-07T14:46:24;37.70;52.40
15656;DHT22;7928;43.614;1.456;2023-08-07T14:48:51;37.20;51.20
15656;DHT22;7928;43.614;1.456;2023-08-07T14:51:18;36.80;51.40
15656;DHT22;7928;43.614;1.456;2023-08-07T14:53:45;37.10;51.60
15656;DHT22;7928;43.614;1.456;2023-08-07T14:56:12;37.60;52.00
15656;DHT22;7928;43.614;1.456;2023-08-07T14:58:40;37.90;50.70
15656;DHT22;7928;43.614;1.456;2023-08-07T15:01:07;38.00;51.00
15656;DHT22;7928;43.614;1.456;2023-08-07T15:03:34;37.80;50.90
15656;DHT22;7928;43.614;1.456;2023-08-07T15:06:01;37.90;50.50
15656;DHT22;7928;43.614;1.456;2023-08-07T15:08:28;38.20;50.70
15656;DHT22;7928;43.614;1.456;2023-08-07T15:10:55;37.70;50.30
15656;DHT22;7928;43.614;1.456;2023-08-07T15:13:22;37.30;50.00
15656;DHT22;7928;43.614;1.456;2023-08-07T15:15:51;36.50;51.10
15656;DHT22;7928;43.614;1.456;2023-08-07T15:18:18;36.80;51.10
15656;DHT22;7928;43.614;1.456;2023-08-07T15:20:47;36.50;50.90
15656;DHT22;7928;43.614;1.456;2023-08-07T15:23:14;35.80;51.50
15656;DHT22;7928;43.614;1.456;2023-08-07T15:25:41;35.90;52.00
15656;DHT22;7928;43.614;1.456;2023-08-07T15:28:09;36.60;51.30
15656;DHT22;7928;43.614;1.456;2023-08-07T15:30:36;36.40;51.60
15656;DHT22;7928;43.614;1.456;2023-08-07T15:33:04;36.90;50.70
15656;DHT22;7928;43.614;1.456;2023-08-07T15:35:31;37.50;49.60
15656;DHT22;7928;43.614;1.456;2023-08-07T15:37:59;36.60;50.10
15656;DHT22;7928;43.614;1.456;2023-08-07T15:40:26;36.60;51.50
15656;DHT22;7928;43.614;1.456;2023-08-07T15:42:54;36.90;50.60
15656;DHT22;7928;43.614;1.456;2023-08-07T15:45:21;36.80;50.10
15656;DHT22;7928;43.614;1.456;2023-08-07T15:47:48;36.70;49.30
15656;DHT22;7928;43.614;1.456;2023-08-07T15:50:17;36.60;49.20
15656;DHT22;7928;43.614;1.456;2023-08-07T15:52:43;36.40;49.40